Time;durP1;ratioP1;P1;durP2;ratioP2;P2;SDS_P1;SDS_P2;PMS_P1;PMS_P2;Temp;Humidity;BMP_temperature;BMP_pressure;BME280_temperature;BME280_humidity;BME280_pressure;Samples;Min_cycle;Max_cycle;Signal;HPM_P1;HPM_P2
2024/03/13 00:00:22;;;;;;;0.75;0.75;;;;;;;10.65;100.00;101168.00;10497358;28;20520;-74
2024/03/13 00:05:22;;;;;;;2.25;2.15;;;;;;;10.55;100.00;101179.13;10495775;28;20482;-75
2024/03/13 00:10:24;;;;;;;3.97;3.63;;;;;;;10.47;100.00;101179.25;10496364;28;20036;-76
2024/03/13 00:15:24;;;;;;;0.90;0.90;;;;;;;10.43;100.00;101178.81;10497403;28;20031;-75
2024/03/13 00:20:25;;;;;;;3.00;2.85;;;;;;;10.43;100.00;101181.50;10495345;28;20035;-75
2024/03/13 00:25:25;;;;;;;3.35;2.97;;;;;;;10.36;100.00;101180.56;10495645;28;20345;-74
2024/03/13 00:30:25;;;;;;;0.73;0.73;;;;;;;10.35;100.00;101188.91;10496220;28;20481;-74
2024/03/13 00:35:26;;;;;;;0.45;0.45;;;;;;;10.32;100.00;101190.09;10495352;28;20155;-76
2024/03/13 00:40:26;;;;;;;0.80;0.80;;;;;;;10.32;100.00;101187.41;10497008;28;20028;-75
2024/03/13 00:45:27;;;;;;;3.05;2.95;;;;;;;10.32;100.00;101190.09;10495011;28;20059;-74
2024/03/13 00:50:27;;;;;;;2.13;2.03;;;;;;;10.39;100.00;101190.19;10495478;28;20511;-75
2024/03/13 00:55:28;;;;;;;5.78;4.57;;;;;;;10.36;100.00;101185.97;10494585;28;20582;-75
2024/03/13 01:00:29;;;;;;;0.77;0.77;;;;;;;10.40;100.00;101192.72;10494140;28;20203;-77
2024/03/13 01:05:31;;;;;;;1.00;1.00;;;;;;;10.41;100.00;101188.97;10493639;28;20495;-75
2024/03/13 01:10:32;;;;;;;1.55;0.95;;;;;;;10.46;100.00;101196.50;10493005;28;20044;-74
2024/03/13 01:15:32;;;;;;;4.50;3.00;;;;;;;10.44;100.00;101198.59;10495271;28;20658;-75
2024/03/13 01:20:33;;;;;;;5.47;3.75;;;;;;;10.47;100.00;101196.34;10494126;28;20138;-75
2024/03/13 01:25:33;;;;;;;0.77;0.77;;;;;;;10.47;100.00;101199.06;10496908;28;20024;-74
2024/03/13 01:30:34;;;;;;;5.18;4.78;;;;;;;10.46;100.00;101191.09;10494905;28;20119;-74
2024/03/13 01:35:35;;;;;;;3.25;3.03;;;;;;;10.49;100.00;101209.69;10492587;28;20103;-74
2024/03/13 01:57:13;;;;;;;5.47;2.30;;;;;;;10.43;100.00;101207.72;10491907;28;20333;-74
2024/03/13 02:02:24;;;;;;;1.58;1.48;;;;;;;10.49;100.00;101212.38;10475771;28;20048;-75
2024/03/13 02:07:24;;;;;;;0.40;0.40;;;;;;;10.45;100.00;101211.94;10493665;28;20380;-70
2024/03/13 02:12:24;;;;;;;1.13;1.13;;;;;;;10.40;100.00;101214.38;10495673;28;20059;-70
2024/03/13 02:17:26;;;;;;;0.63;0.63;;;;;;;10.43;100.00;101205.88;10496998;28;20474;-70
2024/03/13 02:22:26;;;;;;;1.30;1.30;;;;;;;10.44;100.00;101206.72;10487709;28;20343;-70
2024/03/13 02:27:27;;;;;;;3.03;2.85;;;;;;;10.39;100.00;101206.44;10486486;28;20039;-70
2024/03/13 02:32:27;;;;;;;0.82;0.82;;;;;;;10.41;100.00;101210.63;10504292;28;20436;-71
2024/03/13 02:37:28;;;;;;;1.70;1.65;;;;;;;10.38;100.00;101207.47;10503218;28;20064;-72
2024/03/13 02:42:29;;;;;;;0.93;0.93;;;;;;;10.36;100.00;101204.09;10503668;28;20048;-70
2024/03/13 02:47:30;;;;;;;0.85;0.85;;;;;;;10.27;100.00;101203.34;10503175;28;20063;-69
2024/03/13 02:52:31;;;;;;;0.82;0.82;;;;;;;10.22;100.00;101201.19;10503449;28;20110;-70
2024/03/13 02:57:32;;;;;;;0.40;0.40;;;;;;;10.24;100.00;101206.41;10501783;28;20426;-70
2024/03/13 03:02:34;;;;;;;4.18;3.85;;;;;;;10.27;100.00;101207.94;10501525;28;20124;-69
2024/03/13 03:07:35;;;;;;;1.55;1.48;;;;;;;10.29;100.00;101211.31;10501600;28;20036;-71
2024/03/13 03:12:36;;;;;;;0.93;0.93;;;;;;;10.27;100.00;101211.47;10503041;28;20036;-71
2024/03/13 03:17:36;;;;;;;1.95;1.80;;;;;;;10.26;100.00;101209.81;10502844;28;20113;-70
2024/03/13 03:22:37;;;;;;;0.32;0.32;;;;;;;10.30;100.00;101212.97;10500309;28;20024;-69
2024/03/13 03:27:37;;;;;;;1.40;1.40;;;;;;;10.27;100.00;101222.31;10501113;28;20103;-69
2024/03/13 03:32:38;;;;;;;5.43;4.97;;;;;;;10.25;100.00;101216.22;10500319;28;20123;-69
2024/03/13 03:37:38;;;;;;;5.97;2.38;;;;;;;10.29;100.00;101228.38;10485315;28;20494;-70
2024/03/13 03:42:39;;;;;;;2.67;2.58;;;;;;;10.25;100.00;101227.06;10501777;28;20457;-69
2024/03/13 03:47:39;;;;;;;5.57;2.38;;;;;;;10.27;100.00;101224.16;10499950;28;20068;-68
2024/03/13 03:52:40;;;;;;;2.38;2.28;;;;;;;10.25;100.00;101237.88;10501086;28;20036;-70
2024/03/13 03:57:41;;;;;;;1.73;1.63;;;;;;;10.20;100.00;101233.00;10502395;28;20079;-70
2024/03/13 04:02:42;;;;;;;0.40;0.40;;;;;;;10.18;100.00;101234.25;10500691;28;20171;-69
2024/03/13 04:07:42;;;;;;;3.25;2.03;;;;;;;10.19;100.00;101234.03;10499384;28;20121;-69
2024/03/13 04:12:42;;;;;;;4.65;4.30;;;;;;;10.17;100.00;101229.84;10501036;28;20052;-69
2024/03/13 04:17:44;;;;;;;0.60;0.60;;;;;;;10.24;100.00;101234.34;10500897;28;20060;-69
2024/03/13 04:22:45;;;;;;;6.80;2.05;;;;;;;10.29;100.00;101233.78;10499751;28;20069;-69
2024/03/13 04:27:46;;;;;;;12.77;3.92;;;;;;;10.33;100.00;101223.41;10500112;28;20039;-70
2024/03/13 04:32:47;;;;;;;9.85;3.50;;;;;;;10.34;100.00;101228.66;10499500;28;20059;-69
2024/03/13 04:37:49;;;;;;;0.68;0.68;;;;;;;10.35;100.00;101230.34;10497849;28;20032;-69
2024/03/13 04:42:50;;;;;;;0.50;0.50;;;;;;;10.30;100.00;101234.63;10499057;28;20349;-69
2024/03/13 04:47:50;;;;;;;0.50;0.50;;;;;;;10.37;100.00;101241.81;10499359;28;20037;-68
2024/03/13 04:52:52;;;;;;;0.70;0.70;;;;;;;10.38;100.00;101239.94;10499022;28;20128;-69
2024/03/13 04:57:52;;;;;;;3.50;3.20;;;;;;;10.39;100.00;101249.75;10496788;28;20073;-69
2024/03/13 05:02:54;;;;;;;8.77;4.05;;;;;;;10.37;100.00;101235.53;10498884;28;20178;-69
2024/03/13 05:07:56;;;;;;;0.60;0.60;;;;;;;10.35;100.00;101243.03;10499184;28;20093;-70
2024/03/13 05:12:56;;;;;;;0.50;0.50;;;;;;;10.36;100.00;101242.84;10502255;28;20325;-69
2024/03/13 05:17:57;;;;;;;0.90;0.90;;;;;;;10.37;100.00;101241.81;10500201;28;20075;-69
2024/03/13 05:22:58;;;;;;;2.90;2.75;;;;;;;10.38;100.00;101257.03;10498081;28;20063;-70
2024/03/13 05:27:58;;;;;;;0.60;0.60;;;;;;;10.37;100.00;101257.19;10497152;28;20353;-70
2024/03/13 05:32:59;;;;;;;1.17;1.17;;;;;;;10.36;100.00;101252.81;10424589;28;20131;-70
2024/03/13 05:37:59;;;;;;;5.38;2.42;;;;;;;10.34;100.00;101254.88;10496845;28;20499;-71
2024/03/13 05:42:59;;;;;;;0.40;0.40;;;;;;;10.31;100.00;101256.09;10494717;28;20067;-69
2024/03/13 05:48:00;;;;;;;0.60;0.60;;;;;;;10.27;100.00;101262.91;10496427;28;20419;-70
2024/03/13 05:53:01;;;;;;;0.50;0.50;;;;;;;10.32;100.00;101271.31;10495252;28;20024;-70
2024/03/13 05:58:01;;;;;;;0.38;0.38;;;;;;;10.31;100.00;101268.81;10495431;28;20055;-71
2024/03/13 06:03:01;;;;;;;0.40;0.40;;;;;;;10.28;100.00;101270.00;10496647;28;20115;-70
2024/03/13 06:08:02;;;;;;;0.50;0.50;;;;;;;10.22;100.00;101276.13;10496329;28;20102;-70
2024/03/13 06:13:03;;;;;;;5.78;4.78;;;;;;;10.23;100.00;101294.88;10451028;28;20506;-69
2024/03/13 06:18:03;;;;;;;0.50;0.50;;;;;;;10.27;100.00;101297.25;10496621;28;20445;-70
2024/03/13 06:23:04;;;;;;;0.43;0.43;;;;;;;10.22;100.00;101292.38;10495798;28;20037;-69
2024/03/13 06:29:56;;;;;;;1.17;1.17;;;;;;;10.21;100.00;101283.41;10495823;28;20035;-70
2024/03/13 06:33:25;;;;;;;0.50;0.50;;;;;;;10.21;100.00;101283.41;10495500;28;20039;-69
2024/03/13 06:38:25;;;;;;;0.70;0.70;;;;;;;10.25;100.00;101283.88;10495696;28;20482;-69
2024/03/13 06:43:26;;;;;;;1.77;1.67;;;;;;;10.29;100.00;101278.97;10495442;28;20025;-70
2024/03/13 06:48:26;;;;;;;0.50;0.50;;;;;;;10.33;100.00;101272.97;10496065;28;20036;-70
2024/03/13 06:53:27;;;;;;;0.60;0.60;;;;;;;10.36;100.00;101278.03;10494270;28;20028;-70
2024/03/13 06:58:27;;;;;;;1.15;1.15;;;;;;;10.40;100.00;101289.31;10495215;28;20032;-69
2024/03/13 07:03:28;;;;;;;0.50;0.50;;;;;;;10.48;100.00;101298.19;10494180;28;20079;-69
2024/03/13 07:08:31;;;;;;;3.95;1.85;;;;;;;10.50;100.00;101294.44;10501750;28;20047;-69
2024/03/13 07:13:32;;;;;;;0.65;0.65;;;;;;;10.54;100.00;101295.78;10502452;28;20029;-70
2024/03/13 07:18:33;;;;;;;1.17;1.17;;;;;;;10.64;100.00;101296.31;10503253;28;20028;-69
2024/03/13 07:23:33;;;;;;;0.47;0.47;;;;;;;10.58;100.00;101291.66;10502464;28;20029;-70
2024/03/13 07:28:37;;;;;;;2.35;2.25;;;;;;;10.69;100.00;101293.91;10500938;28;20029;-69
2024/03/13 07:33:38;;;;;;;4.22;3.90;;;;;;;10.73;100.00;101300.63;10501595;28;20039;-70
2024/03/13 07:38:38;;;;;;;5.78;5.15;;;;;;;10.69;100.00;101310.16;10500771;28;20432;-70
2024/03/13 07:43:39;;;;;;;1.02;1.02;;;;;;;10.80;100.00;101317.78;10500962;28;20139;-70
2024/03/13 07:48:41;;;;;;;1.00;1.00;;;;;;;11.07;100.00;101308.13;10501156;28;20124;-69
2024/03/13 07:53:41;;;;;;;0.60;0.60;;;;;;;11.11;100.00;101319.41;10502425;28;20032;-70
2024/03/13 07:58:42;;;;;;;2.78;2.60;;;;;;;11.09;100.00;101321.47;10501410;28;20337;-70
2024/03/13 08:03:42;;;;;;;1.08;1.02;;;;;;;11.24;100.00;101329.56;10499175;28;20074;-69
2024/03/13 08:08:42;;;;;;;0.40;0.40;;;;;;;11.42;100.00;101321.81;10501259;28;20142;-70
2024/03/13 08:13:43;;;;;;;1.20;1.20;;;;;;;11.43;100.00;101330.81;10500204;28;20421;-70
2024/03/13 08:18:43;;;;;;;0.50;0.50;;;;;;;11.47;100.00;101334.81;10499846;28;20032;-70
2024/03/13 08:23:47;;;;;;;0.35;0.35;;;;;;;11.54;100.00;101341.16;10499912;28;20063;-71
2024/03/13 08:28:48;;;;;;;0.50;0.50;;;;;;;11.47;100.00;101345.66;10499507;28;20353;-70
2024/03/13 08:33:49;;;;;;;1.35;1.35;;;;;;;11.31;100.00;101352.16;10500085;28;20048;-70
2024/03/13 08:38:49;;;;;;;0.85;0.85;;;;;;;11.35;100.00;101364.31;10499407;28;20029;-70
2024/03/13 08:43:50;;;;;;;6.68;5.72;;;;;;;11.34;100.00;101368.91;10499139;28;20120;-70
2024/03/13 08:48:52;;;;;;;3.50;3.22;;;;;;;11.32;100.00;101364.69;10498178;28;20071;-70
2024/03/13 08:53:52;;;;;;;8.05;4.20;;;;;;;11.31;100.00;101358.44;10499916;28;20024;-70
2024/03/13 08:58:53;;;;;;;10.00;5.32;;;;;;;11.42;100.00;101370.63;10499226;28;20360;-70
2024/03/13 09:03:53;;;;;;;18.30;6.13;;;;;;;11.51;100.00;101374.06;10499686;28;20099;-69
2024/03/13 09:08:54;;;;;;;16.13;5.53;;;;;;;11.46;100.00;101381.97;10499173;28;20084;-70
2024/03/13 09:14:01;;;;;;;11.77;7.32;;;;;;;11.63;100.00;101373.38;10481199;28;20029;-70
2024/03/13 09:19:02;;;;;;;16.50;7.30;;;;;;;11.58;100.00;101378.56;10498256;28;20039;-69
2024/03/13 09:24:02;;;;;;;11.32;7.13;;;;;;;11.74;100.00;101384.75;10496213;28;20067;-70
2024/03/13 09:29:03;;;;;;;20.23;7.20;;;;;;;11.67;100.00;101384.69;10497807;28;20341;-70
2024/03/13 09:34:03;;;;;;;9.30;6.05;;;;;;;11.76;100.00;101386.25;10496653;28;20024;-70
2024/03/13 09:39:06;;;;;;;12.85;5.72;;;;;;;11.70;100.00;101388.88;10498099;28;20433;-70
2024/03/13 09:44:07;;;;;;;19.35;7.35;;;;;;;11.77;100.00;101384.38;10497615;28;20070;-69
2024/03/13 09:49:07;;;;;;;28.30;9.57;;;;;;;11.93;100.00;101394.16;10462590;28;20073;-69
2024/03/13 09:54:08;;;;;;;14.85;6.97;;;;;;;12.22;100.00;101394.03;10478384;28;20044;-69
2024/03/13 09:59:09;;;;;;;30.67;8.43;;;;;;;12.33;100.00;101398.91;10478307;28;20060;-70
2024/03/13 10:04:15;;;;;;;29.58;7.35;;;;;;;12.29;100.00;101405.75;10496557;28;20131;-70
2024/03/13 10:09:16;;;;;;;18.87;5.40;;;;;;;12.31;100.00;101402.84;10495328;28;20120;-70
2024/03/13 10:14:16;;;;;;;9.25;3.13;;;;;;;12.22;100.00;101395.88;10478016;28;20024;-70
2024/03/13 10:19:17;;;;;;;9.18;4.03;;;;;;;12.26;100.00;101403.44;10495933;28;20131;-70
2024/03/13 10:24:18;;;;;;;9.77;3.08;;;;;;;12.46;100.00;101408.19;10477907;28;20428;-70
2024/03/13 10:29:19;;;;;;;2.28;2.08;;;;;;;12.39;100.00;101400.00;10496050;28;20039;-70
2024/03/13 10:34:19;;;;;;;4.20;2.65;;;;;;;12.28;100.00;101406.81;10494654;28;20029;-70
2024/03/13 10:39:20;;;;;;;5.15;2.53;;;;;;;12.25;100.00;101401.78;10496738;28;20068;-70
2024/03/13 10:44:22;;;;;;;5.35;3.58;;;;;;;12.22;100.00;101413.03;10484740;28;20078;-70
2024/03/13 10:49:24;;;;;;;5.13;2.75;;;;;;;12.23;100.00;101403.84;10502949;28;20043;-70
2024/03/13 10:54:26;;;;;;;10.75;2.25;;;;;;;12.17;100.00;101406.50;10503223;28;20143;-71
2024/03/13 10:59:27;;;;;;;7.97;3.50;;;;;;;12.09;100.00;101413.75;10502053;28;20119;-70
2024/03/13 11:04:27;;;;;;;8.65;3.35;;;;;;;12.07;100.00;101415.81;10485598;28;20511;-71
2024/03/13 11:09:28;;;;;;;10.07;3.58;;;;;;;11.94;100.00;101423.00;10501486;28;20033;-70
2024/03/13 11:14:28;;;;;;;13.65;3.13;;;;;;;12.11;100.00;101418.97;10502222;28;20060;-69
2024/03/13 11:19:32;;;;;;;7.97;3.42;;;;;;;12.22;100.00;101426.59;10501756;28;20136;-70
2024/03/13 11:24:33;;;;;;;9.82;4.20;;;;;;;12.25;100.00;101428.94;10485297;28;20027;-70
2024/03/13 11:29:37;;;;;;;5.72;3.28;;;;;;;12.08;100.00;101436.47;10501264;28;20037;-70
2024/03/13 11:34:37;;;;;;;18.13;3.70;;;;;;;12.12;100.00;101442.34;10499854;28;20029;-70
2024/03/13 11:39:38;;;;;;;7.75;2.75;;;;;;;11.92;100.00;101431.31;10500089;28;20107;-70
2024/03/13 11:44:42;;;;;;;11.90;2.78;;;;;;;11.83;100.00;101438.69;10499133;28;20031;-70
2024/03/13 11:49:42;;;;;;;7.43;3.60;;;;;;;11.93;100.00;101432.97;10500369;28;20048;-70
2024/03/13 11:54:43;;;;;;;15.95;3.05;;;;;;;12.03;100.00;101436.25;10501017;28;20025;-70
2024/03/13 11:59:53;;;;;;;3.83;2.67;;;;;;;12.14;100.00;101439.47;10482489;28;20074;-70
2024/03/13 12:05:00;;;;;;;4.82;2.33;;;;;;;11.91;100.00;101442.38;10498499;28;20366;-70
2024/03/13 12:10:02;;;;;;;4.68;1.88;;;;;;;11.78;100.00;101435.75;10499637;28;20035;-70
2024/03/13 12:15:02;;;;;;;8.20;2.05;;;;;;;11.73;100.00;101438.19;10481294;28;20123;-70
2024/03/13 12:20:03;;;;;;;1.60;1.48;;;;;;;11.90;100.00;101427.97;10498853;28;20029;-70
2024/03/13 12:25:05;;;;;;;8.15;2.20;;;;;;;11.92;100.00;101422.34;10498402;28;20029;-70
2024/03/13 12:30:09;;;;;;;3.20;2.03;;;;;;;11.94;100.00;101412.97;10499039;28;20081;-70
2024/03/13 12:35:10;;;;;;;3.15;1.48;;;;;;;12.31;100.00;101411.81;10497889;28;20021;-70
2024/03/13 12:40:12;;;;;;;5.25;2.17;;;;;;;12.98;100.00;101406.84;10498378;28;20458;-70
2024/03/13 12:45:14;;;;;;;4.13;2.67;;;;;;;13.02;100.00;101402.69;10497657;28;20032;-70
2024/03/13 12:50:16;;;;;;;3.70;2.03;;;;;;;12.79;100.00;101406.56;10498774;28;20033;-70
2024/03/13 12:55:16;;;;;;;3.63;1.70;;;;;;;12.98;100.00;101398.69;10497813;28;20029;-70
2024/03/13 13:00:20;;;;;;;3.42;2.70;;;;;;;12.97;100.00;101391.56;10499079;28;20024;-71
2024/03/13 13:05:20;;;;;;;2.75;2.20;;;;;;;12.80;100.00;101389.19;10496990;28;20131;-70
2024/03/13 13:10:21;;;;;;;2.03;1.50;;;;;;;12.76;100.00;101392.50;10498239;28;20029;-70
2024/03/13 13:15:22;;;;;;;1.60;1.58;;;;;;;12.69;100.00;101389.75;10496600;28;20032;-70
2024/03/13 13:20:25;;;;;;;3.05;2.08;;;;;;;12.52;100.00;101393.81;10497491;28;20028;-70
2024/03/13 13:25:26;;;;;;;2.05;1.88;;;;;;;12.58;100.00;101387.59;10495845;28;20024;-70
2024/03/13 13:30:29;;;;;;;3.25;2.47;;;;;;;12.90;100.00;101396.16;10495550;28;20041;-70
2024/03/13 13:35:29;;;;;;;5.45;2.10;;;;;;;12.93;100.00;101393.03;10495568;28;20028;-70
2024/03/13 13:40:30;;;;;;;3.70;2.47;;;;;;;12.93;100.00;101371.28;10495386;28;20032;-71
2024/03/13 13:45:31;;;;;;;4.80;1.70;;;;;;;13.25;100.00;101384.22;10497419;28;20024;-70
2024/03/13 13:50:31;;;;;;;3.40;2.65;;;;;;;13.51;100.00;101384.50;10498248;28;20470;-71
2024/03/13 13:55:32;;;;;;;2.13;1.98;;;;;;;13.44;100.00;101385.31;10497131;28;20090;-70
2024/03/13 14:00:32;;;;;;;5.57;2.20;;;;;;;13.39;100.00;101385.09;10495894;28;20028;-70
2024/03/13 14:05:35;;;;;;;9.20;2.30;;;;;;;13.68;100.00;101391.25;10494684;28;20049;-70
2024/03/13 14:10:35;;;;;;;10.43;2.90;;;;;;;14.09;100.00;101392.97;10495488;28;20032;-70
2024/03/13 14:15:36;;;;;;;4.53;2.63;;;;;;;14.16;100.00;101382.91;10495870;28;20131;-70
2024/03/13 14:20:37;;;;;;;9.48;2.30;;;;;;;13.84;100.00;101387.28;10477775;28;20042;-70
2024/03/13 14:25:37;;;;;;;1.42;1.33;;;;;;;13.47;100.00;101382.19;10478137;28;20115;-70
2024/03/13 14:30:37;;;;;;;4.32;2.55;;;;;;;13.48;100.00;101389.31;10494420;28;20036;-71
2024/03/13 14:35:38;;;;;;;10.98;2.38;;;;;;;13.23;100.00;101383.53;10494526;28;20039;-70
2024/03/13 14:40:38;;;;;;;4.05;1.70;;;;;;;13.03;100.00;101385.34;10494894;28;20413;-71
2024/03/13 14:45:39;;;;;;;5.40;2.22;;;;;;;12.98;100.00;101399.50;10495905;28;20081;-70
2024/03/13 14:50:39;;;;;;;2.88;2.15;;;;;;;12.88;100.00;101384.63;10494125;28;20422;-70
2024/03/13 14:55:39;;;;;;;6.75;2.03;;;;;;;12.88;100.00;101374.59;10495403;28;20460;-70
2024/03/13 15:00:43;;;;;;;4.45;1.90;;;;;;;12.70;100.00;101386.00;10495086;28;20154;-70
2024/03/13 15:05:43;;;;;;;3.78;2.20;;;;;;;12.64;100.00;101370.50;10493070;28;20511;-71
2024/03/13 15:10:43;;;;;;;3.70;2.15;;;;;;;12.58;100.00;101365.84;10495291;28;20040;-71
2024/03/13 15:15:44;;;;;;;3.25;2.33;;;;;;;12.61;100.00;101376.31;10494899;28;20024;-71
2024/03/13 15:20:45;;;;;;;15.02;3.05;;;;;;;12.64;100.00;101375.94;10477835;28;20029;-71
2024/03/13 15:25:46;;;;;;;11.63;2.85;;;;;;;12.76;100.00;101385.22;10495333;28;20437;-70
2024/03/13 15:30:46;;;;;;;8.77;3.20;;;;;;;12.88;100.00;101381.91;10503221;28;20047;-71
2024/03/13 15:35:47;;;;;;;7.65;3.13;;;;;;;12.95;100.00;101377.34;10501956;28;20111;-70
2024/03/13 15:40:47;;;;;;;3.50;2.33;;;;;;;13.03;100.00;101390.78;10501111;28;20039;-70
2024/03/13 15:45:47;;;;;;;3.45;1.77;;;;;;;13.09;100.00;101387.25;10501330;28;20029;-71
2024/03/13 15:50:51;;;;;;;2.90;2.63;;;;;;;13.00;100.00;101380.31;10501198;28;20449;-70
2024/03/13 15:55:53;;;;;;;5.85;2.83;;;;;;;12.91;100.00;101373.34;10501217;28;20103;-71
2024/03/13 16:00:53;;;;;;;6.32;2.58;;;;;;;12.75;100.00;101375.34;10500462;28;20112;-71
2024/03/13 16:05:54;;;;;;;2.97;2.70;;;;;;;12.72;100.00;101362.16;10499576;28;20148;-70
2024/03/13 16:10:54;;;;;;;8.57;1.60;;;;;;;12.65;100.00;101374.03;10501569;28;20372;-70
2024/03/13 16:15:55;;;;;;;9.73;2.08;;;;;;;12.48;100.00;101370.81;10501023;28;20409;-70
2024/03/13 16:20:55;;;;;;;6.25;2.85;;;;;;;12.37;100.00;101330.59;10498768;28;20121;-70
2024/03/13 16:25:55;;;;;;;4.35;1.90;;;;;;;12.26;100.00;101370.84;10498631;28;20040;-70
2024/03/13 16:30:56;;;;;;;13.50;2.72;;;;;;;12.13;100.00;101373.47;10498677;28;20486;-70
2024/03/13 16:35:57;;;;;;;2.42;2.03;;;;;;;12.12;100.00;101363.63;10500495;28;20028;-70
2024/03/13 16:40:58;;;;;;;7.55;2.17;;;;;;;12.05;100.00;101360.84;10500212;28;20024;-70
2024/03/13 16:45:59;;;;;;;4.05;1.55;;;;;;;11.99;100.00;101372.50;10499479;28;20021;-70
2024/03/13 16:50:59;;;;;;;4.13;2.60;;;;;;;12.02;100.00;101368.56;10498763;28;20024;-71
2024/03/13 16:56:01;;;;;;;12.45;2.33;;;;;;;11.95;100.00;101365.78;10497285;28;20036;-70
2024/03/13 17:01:03;;;;;;;3.50;2.20;;;;;;;11.88;100.00;101358.63;10499659;28;20033;-70
2024/03/13 17:06:04;;;;;;;7.93;2.17;;;;;;;11.92;100.00;101362.63;10498259;28;20060;-71
2024/03/13 17:11:04;;;;;;;14.18;2.63;;;;;;;11.94;100.00;101371.44;10499568;28;20052;-70
2024/03/13 17:16:09;;;;;;;7.90;3.22;;;;;;;11.90;100.00;101383.69;10498599;28;20245;-70
2024/03/13 17:21:13;;;;;;;5.22;2.83;;;;;;;11.91;100.00;101386.22;10496042;28;20020;-71
2024/03/13 17:26:14;;;;;;;5.55;1.55;;;;;;;11.88;100.00;101386.59;10497868;28;20028;-71
2024/03/13 17:31:15;;;;;;;2.90;1.90;;;;;;;11.87;100.00;101384.94;10498162;28;20111;-70
2024/03/13 17:36:16;;;;;;;13.02;2.10;;;;;;;11.81;100.00;101380.25;10497416;28;20054;-71
2024/03/13 17:41:17;;;;;;;6.90;2.58;;;;;;;11.80;100.00;101381.25;10495790;28;20033;-70
2024/03/13 17:46:17;;;;;;;4.55;2.17;;;;;;;11.85;100.00;101378.84;10495382;28;20138;-70
2024/03/13 17:51:18;;;;;;;2.28;2.08;;;;;;;11.77;100.00;101390.66;10494956;28;20035;-70
2024/03/13 17:56:18;;;;;;;12.50;3.42;;;;;;;11.76;100.00;101391.66;10496660;28;20036;-70
2024/03/13 18:01:21;;;;;;;4.95;2.85;;;;;;;11.79;100.00;101399.41;10495108;28;20439;-71
2024/03/13 18:06:27;;;;;;;5.03;3.28;;;;;;;11.77;100.00;101396.09;10494931;28;20078;-71
2024/03/13 18:11:27;;;;;;;15.68;2.63;;;;;;;11.67;100.00;101405.56;10495859;28;20032;-70
2024/03/13 18:16:28;;;;;;;13.48;3.30;;;;;;;11.75;100.00;101400.84;10496723;28;20040;-70
2024/03/13 18:21:29;;;;;;;4.57;1.67;;;;;;;11.75;100.00;101391.88;10494711;28;20032;-70
2024/03/13 18:26:32;;;;;;;2.83;2.20;;;;;;;11.71;100.00;101395.97;10495933;28;20028;-70
2024/03/13 18:31:32;;;;;;;9.65;2.92;;;;;;;11.72;100.00;101395.81;10495820;28;20056;-70
2024/03/13 18:36:33;;;;;;;4.28;2.85;;;;;;;11.69;100.00;101390.75;10496310;28;20448;-70
2024/03/13 18:41:37;;;;;;;3.45;2.95;;;;;;;11.64;100.00;101390.50;10496396;28;20404;-71
2024/03/13 18:46:38;;;;;;;7.25;3.25;;;;;;;11.68;100.00;101386.38;10494666;28;20142;-71
2024/03/13 18:51:38;;;;;;;3.00;2.08;;;;;;;11.67;100.00;101379.25;10494559;28;20489;-70
2024/03/13 18:56:38;;;;;;;7.82;4.07;;;;;;;11.59;100.00;101390.25;10494494;28;20112;-70
2024/03/13 19:01:39;;;;;;;2.55;2.20;;;;;;;11.58;100.00;101377.69;10497008;28;20085;-70
2024/03/13 19:06:40;;;;;;;4.97;3.30;;;;;;;11.71;100.00;101380.56;10504169;28;20120;-70
2024/03/13 19:11:41;;;;;;;2.60;2.40;;;;;;;11.68;100.00;101377.38;10501429;28;20074;-70
2024/03/13 19:16:41;;;;;;;3.30;2.47;;;;;;;11.66;100.00;101383.00;10503248;28;20025;-70
2024/03/13 19:21:41;;;;;;;5.13;3.05;;;;;;;11.69;100.00;101382.63;10501170;28;20032;-71
2024/03/13 19:26:42;;;;;;;2.30;1.98;;;;;;;11.77;100.00;101381.66;10501655;28;20464;-70
2024/03/13 19:31:42;;;;;;;4.78;1.98;;;;;;;11.77;100.00;101378.94;10502143;28;20059;-70
2024/03/13 19:36:43;;;;;;;2.03;1.92;;;;;;;11.75;100.00;101376.44;10502553;28;20028;-70
2024/03/13 19:41:43;;;;;;;6.95;2.42;;;;;;;11.73;100.00;101378.47;10501524;28;20029;-70
2024/03/13 19:46:44;;;;;;;5.05;2.25;;;;;;;11.77;100.00;101377.09;10484679;28;20017;-70
2024/03/13 19:51:44;;;;;;;2.50;2.30;;;;;;;11.78;100.00;101380.63;10499959;28;20039;-70
2024/03/13 19:56:44;;;;;;;2.10;2.00;;;;;;;11.74;100.00;101380.19;10501889;28;20020;-70
2024/03/13 20:01:45;;;;;;;5.68;2.90;;;;;;;11.69;100.00;101384.50;10501255;28;20450;-70
2024/03/13 20:06:47;;;;;;;9.50;3.00;;;;;;;11.67;100.00;101375.72;10500383;28;20102;-70
2024/03/13 20:11:49;;;;;;;3.30;2.45;;;;;;;11.57;100.00;101384.16;10500079;28;20045;-70
2024/03/13 20:16:50;;;;;;;3.45;3.15;;;;;;;11.61;100.00;101363.75;10500760;28;20042;-71
2024/03/13 20:21:52;;;;;;;3.25;2.55;;;;;;;11.65;100.00;101359.63;10499997;28;20036;-71
2024/03/13 20:26:53;;;;;;;3.05;2.65;;;;;;;11.53;100.00;101344.91;10500559;28;20101;-71
2024/03/13 20:31:53;;;;;;;2.85;2.53;;;;;;;11.43;100.00;101352.53;10499916;28;20040;-69
2024/03/13 20:36:54;;;;;;;5.35;2.70;;;;;;;11.35;100.00;101351.59;10500465;28;20028;-70
2024/03/13 20:41:54;;;;;;;4.15;2.95;;;;;;;11.35;100.00;101359.72;10500271;28;20040;-70
2024/03/13 20:46:54;;;;;;;3.35;2.50;;;;;;;11.38;100.00;101359.34;10499313;28;20465;-70
2024/03/13 20:51:55;;;;;;;2.97;2.75;;;;;;;11.34;100.00;101362.63;10497653;28;20031;-70
2024/03/13 20:56:59;;;;;;;4.28;2.97;;;;;;;11.27;100.00;101362.56;10498215;28;20170;-70
2024/03/13 21:02:04;;;;;;;5.03;2.90;;;;;;;11.34;100.00;101357.22;10498053;28;20470;-71
2024/03/13 21:07:04;;;;;;;9.27;3.78;;;;;;;11.28;100.00;101347.97;10499067;28;20071;-70
2024/03/13 21:12:05;;;;;;;9.55;3.65;;;;;;;11.34;100.00;101355.34;10497557;28;20044;-70
2024/03/13 21:17:06;;;;;;;6.28;3.50;;;;;;;11.33;100.00;101347.41;10498403;28;20350;-71
2024/03/13 21:22:08;;;;;;;3.47;3.15;;;;;;;11.26;100.00;101346.47;10497563;28;20108;-71
2024/03/13 21:27:10;;;;;;;7.13;2.75;;;;;;;11.20;100.00;101344.53;10496098;28;20024;-71
2024/03/13 21:32:10;;;;;;;5.93;3.58;;;;;;;11.17;100.00;101346.59;10498170;28;20047;-70
2024/03/13 21:37:11;;;;;;;4.05;3.17;;;;;;;11.21;100.00;101340.81;10497605;28;20386;-71
2024/03/13 21:42:11;;;;;;;6.78;3.90;;;;;;;11.13;100.00;101345.28;10497613;28;20028;-70
2024/03/13 21:47:12;;;;;;;7.22;4.05;;;;;;;11.14;100.00;101346.97;10496949;28;20357;-71
2024/03/13 21:52:12;;;;;;;4.60;4.20;;;;;;;11.12;100.00;101354.44;10495709;28;20029;-71
2024/03/13 21:57:14;;;;;;;9.52;4.60;;;;;;;11.06;100.00;101343.53;10496853;28;20090;-71
2024/03/13 22:02:14;;;;;;;7.85;3.55;;;;;;;11.01;100.00;101341.41;10495104;28;20530;-71
2024/03/13 22:07:16;;;;;;;2.70;2.50;;;;;;;10.97;100.00;101341.97;10496322;28;20139;-72
2024/03/13 22:12:17;;;;;;;8.63;5.05;;;;;;;10.94;100.00;101344.03;10495247;28;20045;-70
2024/03/13 22:17:18;;;;;;;5.30;4.60;;;;;;;10.98;100.00;101343.66;10496716;28;20521;-71
2024/03/13 22:22:18;;;;;;;6.38;4.35;;;;;;;10.94;100.00;101340.47;10497007;28;20094;-70
2024/03/13 22:27:19;;;;;;;4.85;4.38;;;;;;;10.93;100.00;101341.50;10496278;28;20113;-71
2024/03/13 22:32:28;;;;;;;5.05;4.60;;;;;;;10.99;100.00;101332.63;10494166;28;20032;-70
2024/03/13 22:37:28;;;;;;;7.47;3.78;;;;;;;10.96;100.00;101338.41;10500550;28;20055;-70
2024/03/13 22:42:28;;;;;;;5.35;4.75;;;;;;;11.00;100.00;101339.72;10504130;28;20068;-70
2024/03/13 22:47:29;;;;;;;6.93;4.55;;;;;;;10.93;100.00;101342.34;10502645;28;20032;-70
2024/03/13 22:52:29;;;;;;;5.10;4.50;;;;;;;10.86;100.00;101344.13;10503210;28;20055;-70
2024/03/13 22:57:30;;;;;;;10.30;4.88;;;;;;;10.90;100.00;101336.47;10502509;28;20187;-70
2024/03/13 23:02:31;;;;;;;9.05;5.43;;;;;;;10.72;100.00;101331.44;10503623;28;20082;-70